WEATHER

Mean Sea Level Pressure Analysis (Synoptic Chart)

Synoptic Chart

  • YSSY TAF

    TAF YSSY 291636Z 2918/3024 29008KT 9999 SCT025 FM300000 22010KT 9999 FEW025 FM300400 18015KT 9999 -SHRA SCT025 FM301200 21010KT 9999 SCT020 PROB30 TEMPO 3004/3012 VRB25G35KT 3000 TSRA BKN010 FEW030CB RMK T 19 19 23 26 Q 1013 1014 1015 1013

  • YSSY METAR

    TTF METAR YSSY 291830Z 32005KT 9999 -DZ NSC 20/18 Q1014 RMK RF00.0/006.2 3SC080 7AC120 NOSIG

Sydney Rainfall Radar

128 km Sydney Radar

Sydney Rainfall Radar

 

512 km Sydney Radar

Sydney Rainfall Radar 512km

 

Rainfall radar and satellite images obtained from the Bureau of Meteorology. All information provided on this page is for general information and should NOT be used for flight planning.